sensor_id;sensor_type;location;lat;lon;timestamp;temperature;humidity
3684;DHT22;1858;48.716;9.648;2024-03-08T00:01:16;3.90;1.00
3684;DHT22;1858;48.716;9.648;2024-03-08T00:03:45;3.80;1.00
3684;DHT22;1858;48.716;9.648;2024-03-08T00:06:13;3.80;1.00
3684;DHT22;1858;48.716;9.648;2024-03-08T00:08:40;3.80;1.00
3684;DHT22;1858;48.716;9.648;2024-03-08T00:11:08;3.90;1.00
3684;DHT22;1858;48.716;9.648;2024-03-08T00:13:36;3.90;1.00
3684;DHT22;1858;48.716;9.648;2024-03-08T00:16:03;3.90;1.00
3684;DHT22;1858;48.716;9.648;2024-03-08T00:18:31;3.80;1.00
3684;DHT22;1858;48.716;9.648;2024-03-08T00:20:59;3.80;1.00
3684;DHT22;1858;48.716;9.648;2024-03-08T00:23:26;3.70;1.00
3684;DHT22;1858;48.716;9.648;2024-03-08T00:25:55;3.60;1.00
3684;DHT22;1858;48.716;9.648;2024-03-08T00:28:22;3.60;1.00
3684;DHT22;1858;48.716;9.648;2024-03-08T00:30:51;3.60;1.00
3684;DHT22;1858;48.716;9.648;2024-03-08T00:33:19;3.70;1.00
3684;DHT22;1858;48.716;9.648;2024-03-08T00:35:46;3.70;1.00
3684;DHT22;1858;48.716;9.648;2024-03-08T00:38:14;3.70;1.00
3684;DHT22;1858;48.716;9.648;2024-03-08T00:40:42;3.60;1.00
3684;DHT22;1858;48.716;9.648;2024-03-08T00:43:09;3.60;1.00
3684;DHT22;1858;48.716;9.648;2024-03-08T00:45:37;3.60;1.00
3684;DHT22;1858;48.716;9.648;2024-03-08T00:48:04;3.60;1.00
3684;DHT22;1858;48.716;9.648;2024-03-08T00:50:32;3.50;1.00
3684;DHT22;1858;48.716;9.648;2024-03-08T00:53:00;3.50;1.00
3684;DHT22;1858;48.716;9.648;2024-03-08T00:55:28;3.50;1.00
3684;DHT22;1858;48.716;9.648;2024-03-08T00:57:56;3.30;1.00
3684;DHT22;1858;48.716;9.648;2024-03-08T01:00:23;3.40;1.00
3684;DHT22;1858;48.716;9.648;2024-03-08T01:02:52;3.50;1.00
3684;DHT22;1858;48.716;9.648;2024-03-08T01:05:19;3.40;1.00
3684;DHT22;1858;48.716;9.648;2024-03-08T01:07:47;3.40;1.00
3684;DHT22;1858;48.716;9.648;2024-03-08T01:10:16;3.30;1.00
3684;DHT22;1858;48.716;9.648;2024-03-08T01:12:44;3.30;1.00
3684;DHT22;1858;48.716;9.648;2024-03-08T01:15:19;3.40;1.00
3684;DHT22;1858;48.716;9.648;2024-03-08T01:17:47;3.30;1.00
3684;DHT22;1858;48.716;9.648;2024-03-08T01:20:14;3.30;1.00
3684;DHT22;1858;48.716;9.648;2024-03-08T01:22:42;3.20;1.00
3684;DHT22;1858;48.716;9.648;2024-03-08T01:25:09;3.30;1.00
3684;DHT22;1858;48.716;9.648;2024-03-08T01:27:37;3.30;1.40
3684;DHT22;1858;48.716;9.648;2024-03-08T01:30:05;3.20;99.90
3684;DHT22;1858;48.716;9.648;2024-03-08T01:32:33;3.30;99.90
3684;DHT22;1858;48.716;9.648;2024-03-08T01:35:01;3.40;99.90
3684;DHT22;1858;48.716;9.648;2024-03-08T01:37:29;3.30;99.90
3684;DHT22;1858;48.716;9.648;2024-03-08T01:39:57;3.20;99.90
3684;DHT22;1858;48.716;9.648;2024-03-08T01:42:24;3.30;99.90
3684;DHT22;1858;48.716;9.648;2024-03-08T01:44:52;3.20;99.90
3684;DHT22;1858;48.716;9.648;2024-03-08T01:47:21;3.10;99.90
3684;DHT22;1858;48.716;9.648;2024-03-08T01:49:51;3.10;99.90
3684;DHT22;1858;48.716;9.648;2024-03-08T01:52:19;3.10;99.90
3684;DHT22;1858;48.716;9.648;2024-03-08T01:54:49;3.10;99.90
3684;DHT22;1858;48.716;9.648;2024-03-08T01:57:17;3.10;99.90
3684;DHT22;1858;48.716;9.648;2024-03-08T01:59:45;3.00;99.90
3684;DHT22;1858;48.716;9.648;2024-03-08T02:02:13;3.00;99.90
3684;DHT22;1858;48.716;9.648;2024-03-08T02:04:42;2.90;99.90
3684;DHT22;1858;48.716;9.648;2024-03-08T02:07:09;2.90;99.90
3684;DHT22;1858;48.716;9.648;2024-03-08T02:12:30;2.80;1.00
3684;DHT22;1858;48.716;9.648;2024-03-08T02:14:57;2.90;1.00
3684;DHT22;1858;48.716;9.648;2024-03-08T02:17:25;2.90;1.00
3684;DHT22;1858;48.716;9.648;2024-03-08T02:19:53;2.90;1.00
3684;DHT22;1858;48.716;9.648;2024-03-08T02:22:20;3.00;1.00
3684;DHT22;1858;48.716;9.648;2024-03-08T02:24:48;2.90;1.00
3684;DHT22;1858;48.716;9.648;2024-03-08T02:27:22;2.90;1.00
3684;DHT22;1858;48.716;9.648;2024-03-08T02:29:45;2.90;1.00
3684;DHT22;1858;48.716;9.648;2024-03-08T02:32:13;2.90;1.00
3684;DHT22;1858;48.716;9.648;2024-03-08T02:34:41;2.80;1.00
3684;DHT22;1858;48.716;9.648;2024-03-08T02:37:08;2.90;1.00
3684;DHT22;1858;48.716;9.648;2024-03-08T02:39:36;2.80;1.00
3684;DHT22;1858;48.716;9.648;2024-03-08T02:42:04;2.80;1.00
3684;DHT22;1858;48.716;9.648;2024-03-08T02:44:31;2.80;1.00
3684;DHT22;1858;48.716;9.648;2024-03-08T02:47:00;2.80;1.00
3684;DHT22;1858;48.716;9.648;2024-03-08T02:49:27;2.90;1.00
3684;DHT22;1858;48.716;9.648;2024-03-08T02:51:55;2.90;1.00
3684;DHT22;1858;48.716;9.648;2024-03-08T02:54:24;3.00;1.00
3684;DHT22;1858;48.716;9.648;2024-03-08T02:56:52;2.90;1.00
3684;DHT22;1858;48.716;9.648;2024-03-08T02:59:19;2.90;1.00
3684;DHT22;1858;48.716;9.648;2024-03-08T03:01:47;2.90;1.00
3684;DHT22;1858;48.716;9.648;2024-03-08T03:04:15;2.90;1.00
3684;DHT22;1858;48.716;9.648;2024-03-08T03:09:31;2.80;1.00
3684;DHT22;1858;48.716;9.648;2024-03-08T03:11:59;2.80;1.00
3684;DHT22;1858;48.716;9.648;2024-03-08T03:14:27;2.80;1.00
3684;DHT22;1858;48.716;9.648;2024-03-08T03:16:54;2.80;1.00
3684;DHT22;1858;48.716;9.648;2024-03-08T03:19:22;2.80;1.00
3684;DHT22;1858;48.716;9.648;2024-03-08T03:21:50;2.80;1.00
3684;DHT22;1858;48.716;9.648;2024-03-08T03:24:19;2.70;1.00
3684;DHT22;1858;48.716;9.648;2024-03-08T03:26:47;2.80;1.00
3684;DHT22;1858;48.716;9.648;2024-03-08T03:32:03;2.70;1.00
3684;DHT22;1858;48.716;9.648;2024-03-08T03:34:30;2.70;1.00
3684;DHT22;1858;48.716;9.648;2024-03-08T03:36:59;2.70;1.00
3684;DHT22;1858;48.716;9.648;2024-03-08T03:39:27;2.60;1.00
3684;DHT22;1858;48.716;9.648;2024-03-08T03:41:56;2.70;1.00
3684;DHT22;1858;48.716;9.648;2024-03-08T03:44:24;2.60;1.00
3684;DHT22;1858;48.716;9.648;2024-03-08T03:46:51;2.60;1.00
3684;DHT22;1858;48.716;9.648;2024-03-08T03:49:19;2.60;1.00
3684;DHT22;1858;48.716;9.648;2024-03-08T03:51:47;2.60;1.00
3684;DHT22;1858;48.716;9.648;2024-03-08T03:54:14;2.60;1.00
3684;DHT22;1858;48.716;9.648;2024-03-08T03:56:42;2.60;1.00
3684;DHT22;1858;48.716;9.648;2024-03-08T03:59:10;2.50;1.00
3684;DHT22;1858;48.716;9.648;2024-03-08T04:01:41;2.50;1.00
3684;DHT22;1858;48.716;9.648;2024-03-08T04:04:07;2.60;1.00
3684;DHT22;1858;48.716;9.648;2024-03-08T04:06:35;2.60;1.00
3684;DHT22;1858;48.716;9.648;2024-03-08T04:09:02;2.60;1.00
3684;DHT22;1858;48.716;9.648;2024-03-08T04:11:32;2.70;1.00
3684;DHT22;1858;48.716;9.648;2024-03-08T04:13:59;2.70;1.00
3684;DHT22;1858;48.716;9.648;2024-03-08T04:16:27;2.80;1.00
3684;DHT22;1858;48.716;9.648;2024-03-08T04:18:55;2.80;1.00
3684;DHT22;1858;48.716;9.648;2024-03-08T04:21:22;2.80;1.00
3684;DHT22;1858;48.716;9.648;2024-03-08T04:23:50;2.90;1.00
3684;DHT22;1858;48.716;9.648;2024-03-08T04:26:17;3.00;1.00
3684;DHT22;1858;48.716;9.648;2024-03-08T04:28:45;3.00;1.00
3684;DHT22;1858;48.716;9.648;2024-03-08T04:31:13;2.90;1.00
3684;DHT22;1858;48.716;9.648;2024-03-08T04:33:42;2.90;1.00
3684;DHT22;1858;48.716;9.648;2024-03-08T04:36:11;3.00;1.00
3684;DHT22;1858;48.716;9.648;2024-03-08T04:38:40;3.10;1.00
3684;DHT22;1858;48.716;9.648;2024-03-08T04:41:08;3.10;1.00
3684;DHT22;1858;48.716;9.648;2024-03-08T04:43:36;3.20;1.00
3684;DHT22;1858;48.716;9.648;2024-03-08T04:46:04;3.20;1.00
3684;DHT22;1858;48.716;9.648;2024-03-08T04:48:32;3.30;1.00
3684;DHT22;1858;48.716;9.648;2024-03-08T04:50:59;3.20;1.00
3684;DHT22;1858;48.716;9.648;2024-03-08T04:53:27;3.30;1.00
3684;DHT22;1858;48.716;9.648;2024-03-08T04:55:55;3.30;1.00
3684;DHT22;1858;48.716;9.648;2024-03-08T04:58:24;3.30;1.00
3684;DHT22;1858;48.716;9.648;2024-03-08T05:00:52;3.40;1.00
3684;DHT22;1858;48.716;9.648;2024-03-08T05:03:20;3.40;1.00
3684;DHT22;1858;48.716;9.648;2024-03-08T05:05:48;3.50;1.00
3684;DHT22;1858;48.716;9.648;2024-03-08T05:08:15;3.50;1.00
3684;DHT22;1858;48.716;9.648;2024-03-08T05:10:45;3.40;1.00
3684;DHT22;1858;48.716;9.648;2024-03-08T05:13:13;3.50;1.00
3684;DHT22;1858;48.716;9.648;2024-03-08T05:15:40;3.40;1.00
3684;DHT22;1858;48.716;9.648;2024-03-08T05:18:08;3.40;1.00
3684;DHT22;1858;48.716;9.648;2024-03-08T05:20:38;3.40;1.00
3684;DHT22;1858;48.716;9.648;2024-03-08T05:23:06;3.50;1.00
3684;DHT22;1858;48.716;9.648;2024-03-08T05:25:33;3.50;1.00
3684;DHT22;1858;48.716;9.648;2024-03-08T05:28:01;3.50;1.00
3684;DHT22;1858;48.716;9.648;2024-03-08T05:30:30;3.50;1.00
3684;DHT22;1858;48.716;9.648;2024-03-08T05:32:58;3.50;1.00
3684;DHT22;1858;48.716;9.648;2024-03-08T05:35:26;3.50;1.00
3684;DHT22;1858;48.716;9.648;2024-03-08T05:37:54;3.60;1.00
3684;DHT22;1858;48.716;9.648;2024-03-08T05:40:21;3.50;99.90
3684;DHT22;1858;48.716;9.648;2024-03-08T05:42:49;3.60;1.00
3684;DHT22;1858;48.716;9.648;2024-03-08T05:45:17;3.60;1.00
3684;DHT22;1858;48.716;9.648;2024-03-08T05:47:45;3.60;99.90
3684;DHT22;1858;48.716;9.648;2024-03-08T05:50:12;3.50;99.90
3684;DHT22;1858;48.716;9.648;2024-03-08T05:52:41;3.60;1.00
3684;DHT22;1858;48.716;9.648;2024-03-08T05:55:10;3.60;1.00
3684;DHT22;1858;48.716;9.648;2024-03-08T05:57:37;3.50;99.90
3684;DHT22;1858;48.716;9.648;2024-03-08T06:00:06;3.50;99.90
3684;DHT22;1858;48.716;9.648;2024-03-08T06:02:34;3.50;99.90
3684;DHT22;1858;48.716;9.648;2024-03-08T06:05:03;3.50;99.90
3684;DHT22;1858;48.716;9.648;2024-03-08T06:07:31;3.60;99.90
3684;DHT22;1858;48.716;9.648;2024-03-08T06:09:59;3.50;99.90
3684;DHT22;1858;48.716;9.648;2024-03-08T06:12:27;3.50;99.90
3684;DHT22;1858;48.716;9.648;2024-03-08T06:14:56;3.50;99.90
3684;DHT22;1858;48.716;9.648;2024-03-08T06:17:24;3.40;99.90
3684;DHT22;1858;48.716;9.648;2024-03-08T06:19:52;3.40;99.90
3684;DHT22;1858;48.716;9.648;2024-03-08T06:22:21;3.30;1.00
3684;DHT22;1858;48.716;9.648;2024-03-08T06:24:48;3.40;1.00
3684;DHT22;1858;48.716;9.648;2024-03-08T06:27:16;3.40;1.00
3684;DHT22;1858;48.716;9.648;2024-03-08T06:29:44;3.50;1.00
3684;DHT22;1858;48.716;9.648;2024-03-08T06:32:11;3.60;1.00
3684;DHT22;1858;48.716;9.648;2024-03-08T06:34:41;3.60;99.90
3684;DHT22;1858;48.716;9.648;2024-03-08T06:37:08;3.60;99.90
3684;DHT22;1858;48.716;9.648;2024-03-08T06:39:36;3.60;99.90
3684;DHT22;1858;48.716;9.648;2024-03-08T06:42:04;3.60;99.90
3684;DHT22;1858;48.716;9.648;2024-03-08T06:44:31;3.60;99.90
3684;DHT22;1858;48.716;9.648;2024-03-08T06:46:59;3.60;99.90
3684;DHT22;1858;48.716;9.648;2024-03-08T06:49:27;3.70;99.90
3684;DHT22;1858;48.716;9.648;2024-03-08T06:51:54;3.80;99.90
3684;DHT22;1858;48.716;9.648;2024-03-08T06:54:23;3.70;99.90
3684;DHT22;1858;48.716;9.648;2024-03-08T06:56:51;3.70;99.90
3684;DHT22;1858;48.716;9.648;2024-03-08T06:59:19;3.80;99.90
3684;DHT22;1858;48.716;9.648;2024-03-08T07:01:47;3.90;99.90
3684;DHT22;1858;48.716;9.648;2024-03-08T07:04:15;3.90;99.90
3684;DHT22;1858;48.716;9.648;2024-03-08T07:06:43;3.90;99.90
3684;DHT22;1858;48.716;9.648;2024-03-08T07:09:10;3.90;99.90
3684;DHT22;1858;48.716;9.648;2024-03-08T07:11:38;3.90;99.90
3684;DHT22;1858;48.716;9.648;2024-03-08T07:14:07;3.90;99.90
3684;DHT22;1858;48.716;9.648;2024-03-08T07:16:35;4.00;99.90
3684;DHT22;1858;48.716;9.648;2024-03-08T07:19:03;4.00;99.90
3684;DHT22;1858;48.716;9.648;2024-03-08T07:21:31;4.10;99.90
3684;DHT22;1858;48.716;9.648;2024-03-08T07:23:59;4.20;99.90
3684;DHT22;1858;48.716;9.648;2024-03-08T07:29:16;4.10;99.90
3684;DHT22;1858;48.716;9.648;2024-03-08T07:31:44;4.10;99.90
3684;DHT22;1858;48.716;9.648;2024-03-08T07:34:13;4.10;99.90
3684;DHT22;1858;48.716;9.648;2024-03-08T07:36:42;4.10;99.90
3684;DHT22;1858;48.716;9.648;2024-03-08T07:39:10;4.30;99.90
3684;DHT22;1858;48.716;9.648;2024-03-08T07:41:39;4.30;99.90
3684;DHT22;1858;48.716;9.648;2024-03-08T07:44:07;4.30;99.90
3684;DHT22;1858;48.716;9.648;2024-03-08T07:49:21;4.40;99.90
3684;DHT22;1858;48.716;9.648;2024-03-08T07:51:49;4.30;99.90
3684;DHT22;1858;48.716;9.648;2024-03-08T07:54:16;4.40;99.90
3684;DHT22;1858;48.716;9.648;2024-03-08T07:56:44;4.40;99.90
3684;DHT22;1858;48.716;9.648;2024-03-08T07:59:12;4.30;99.90
3684;DHT22;1858;48.716;9.648;2024-03-08T08:01:39;4.40;99.90
3684;DHT22;1858;48.716;9.648;2024-03-08T08:04:07;4.50;99.90
3684;DHT22;1858;48.716;9.648;2024-03-08T08:06:36;4.40;99.90
3684;DHT22;1858;48.716;9.648;2024-03-08T08:09:06;4.50;99.90
3684;DHT22;1858;48.716;9.648;2024-03-08T08:11:35;4.40;99.90
3684;DHT22;1858;48.716;9.648;2024-03-08T08:14:03;4.50;99.90
3684;DHT22;1858;48.716;9.648;2024-03-08T08:16:31;4.50;99.90
3684;DHT22;1858;48.716;9.648;2024-03-08T08:18:59;4.60;99.90
3684;DHT22;1858;48.716;9.648;2024-03-08T08:21:27;4.60;99.90
3684;DHT22;1858;48.716;9.648;2024-03-08T08:23:55;4.60;99.90
3684;DHT22;1858;48.716;9.648;2024-03-08T08:26:22;4.60;99.90
3684;DHT22;1858;48.716;9.648;2024-03-08T08:28:51;4.60;99.90
3684;DHT22;1858;48.716;9.648;2024-03-08T08:31:19;4.60;99.90
3684;DHT22;1858;48.716;9.648;2024-03-08T08:33:47;4.60;99.90
3684;DHT22;1858;48.716;9.648;2024-03-08T08:36:19;4.60;99.90
3684;DHT22;1858;48.716;9.648;2024-03-08T08:38:47;4.70;99.90
3684;DHT22;1858;48.716;9.648;2024-03-08T08:41:14;4.90;99.90
3684;DHT22;1858;48.716;9.648;2024-03-08T08:43:43;5.00;99.90
3684;DHT22;1858;48.716;9.648;2024-03-08T08:46:12;5.10;99.90
3684;DHT22;1858;48.716;9.648;2024-03-08T08:48:41;5.10;99.90
3684;DHT22;1858;48.716;9.648;2024-03-08T08:51:11;5.00;99.90
3684;DHT22;1858;48.716;9.648;2024-03-08T08:53:39;5.20;99.90
3684;DHT22;1858;48.716;9.648;2024-03-08T08:56:09;5.30;99.90
3684;DHT22;1858;48.716;9.648;2024-03-08T08:58:43;5.40;99.90
3684;DHT22;1858;48.716;9.648;2024-03-08T09:01:10;5.50;99.90
3684;DHT22;1858;48.716;9.648;2024-03-08T09:03:38;5.60;99.90
3684;DHT22;1858;48.716;9.648;2024-03-08T09:06:31;5.70;99.90
3684;DHT22;1858;48.716;9.648;2024-03-08T09:08:58;5.70;99.90
3684;DHT22;1858;48.716;9.648;2024-03-08T09:11:26;5.80;99.90
3684;DHT22;1858;48.716;9.648;2024-03-08T09:13:54;5.90;99.90
3684;DHT22;1858;48.716;9.648;2024-03-08T09:16:21;5.70;99.90
3684;DHT22;1858;48.716;9.648;2024-03-08T09:18:49;5.60;99.90
3684;DHT22;1858;48.716;9.648;2024-03-08T09:21:17;5.60;99.90
3684;DHT22;1858;48.716;9.648;2024-03-08T09:23:45;5.70;99.90
3684;DHT22;1858;48.716;9.648;2024-03-08T09:26:12;5.80;99.90
3684;DHT22;1858;48.716;9.648;2024-03-08T09:28:42;5.80;99.90
3684;DHT22;1858;48.716;9.648;2024-03-08T09:31:09;5.90;99.90
3684;DHT22;1858;48.716;9.648;2024-03-08T09:33:38;5.90;99.90
3684;DHT22;1858;48.716;9.648;2024-03-08T09:39:00;6.00;99.90
3684;DHT22;1858;48.716;9.648;2024-03-08T09:41:27;6.10;99.90
3684;DHT22;1858;48.716;9.648;2024-03-08T09:43:57;6.20;99.90
3684;DHT22;1858;48.716;9.648;2024-03-08T09:46:26;6.30;99.90
3684;DHT22;1858;48.716;9.648;2024-03-08T09:48:54;6.30;99.90
3684;DHT22;1858;48.716;9.648;2024-03-08T09:51:22;6.50;99.90
3684;DHT22;1858;48.716;9.648;2024-03-08T09:53:51;6.50;99.90
3684;DHT22;1858;48.716;9.648;2024-03-08T09:56:21;6.60;99.90
3684;DHT22;1858;48.716;9.648;2024-03-08T09:58:50;6.60;99.90
3684;DHT22;1858;48.716;9.648;2024-03-08T10:01:35;6.50;99.90
3684;DHT22;1858;48.716;9.648;2024-03-08T10:04:05;6.40;99.90
3684;DHT22;1858;48.716;9.648;2024-03-08T10:06:32;6.60;99.90
3684;DHT22;1858;48.716;9.648;2024-03-08T10:09:00;6.70;99.90
3684;DHT22;1858;48.716;9.648;2024-03-08T10:11:28;6.80;99.90
3684;DHT22;1858;48.716;9.648;2024-03-08T10:13:57;6.90;99.90
3684;DHT22;1858;48.716;9.648;2024-03-08T10:16:27;7.00;99.90
3684;DHT22;1858;48.716;9.648;2024-03-08T10:18:59;7.10;92.90
3684;DHT22;1858;48.716;9.648;2024-03-08T10:21:28;7.30;82.70
3684;DHT22;1858;48.716;9.648;2024-03-08T10:23:56;7.60;71.00
3684;DHT22;1858;48.716;9.648;2024-03-08T10:26:26;7.70;50.30
3684;DHT22;1858;48.716;9.648;2024-03-08T10:28:54;8.00;40.60
3684;DHT22;1858;48.716;9.648;2024-03-08T10:31:24;8.20;22.80
3684;DHT22;1858;48.716;9.648;2024-03-08T10:33:53;8.40;9.20
3684;DHT22;1858;48.716;9.648;2024-03-08T10:36:21;8.40;3.30
3684;DHT22;1858;48.716;9.648;2024-03-08T10:38:51;8.70;1.00
3684;DHT22;1858;48.716;9.648;2024-03-08T10:41:23;8.90;1.00
3684;DHT22;1858;48.716;9.648;2024-03-08T10:49:38;9.50;1.00
3684;DHT22;1858;48.716;9.648;2024-03-08T10:52:07;9.50;1.00
3684;DHT22;1858;48.716;9.648;2024-03-08T10:54:37;9.70;1.00
3684;DHT22;1858;48.716;9.648;2024-03-08T10:57:09;10.10;1.00
3684;DHT22;1858;48.716;9.648;2024-03-08T10:59:39;11.10;1.00
3684;DHT22;1858;48.716;9.648;2024-03-08T11:02:27;11.60;1.00
3684;DHT22;1858;48.716;9.648;2024-03-08T11:04:55;12.10;1.00
3684;DHT22;1858;48.716;9.648;2024-03-08T11:07:25;11.90;1.00
3684;DHT22;1858;48.716;9.648;2024-03-08T11:09:56;11.50;1.00
3684;DHT22;1858;48.716;9.648;2024-03-08T11:12:28;11.50;1.00
3684;DHT22;1858;48.716;9.648;2024-03-08T11:15:10;12.20;1.00
3684;DHT22;1858;48.716;9.648;2024-03-08T11:18:00;12.60;1.00
3684;DHT22;1858;48.716;9.648;2024-03-08T11:20:29;12.50;1.00
3684;DHT22;1858;48.716;9.648;2024-03-08T11:23:01;12.50;1.00
3684;DHT22;1858;48.716;9.648;2024-03-08T11:25:50;12.90;1.00
3684;DHT22;1858;48.716;9.648;2024-03-08T11:28:23;13.10;1.00
3684;DHT22;1858;48.716;9.648;2024-03-08T11:31:24;13.20;1.00
3684;DHT22;1858;48.716;9.648;2024-03-08T11:33:34;13.70;1.00
3684;DHT22;1858;48.716;9.648;2024-03-08T11:36:22;14.30;1.00
3684;DHT22;1858;48.716;9.648;2024-03-08T11:38:52;14.70;1.00
3684;DHT22;1858;48.716;9.648;2024-03-08T11:41:24;14.50;1.00
3684;DHT22;1858;48.716;9.648;2024-03-08T11:44:05;14.30;1.00
3684;DHT22;1858;48.716;9.648;2024-03-08T11:46:34;14.00;1.00
3684;DHT22;1858;48.716;9.648;2024-03-08T11:49:02;13.90;1.00
3684;DHT22;1858;48.716;9.648;2024-03-08T11:51:30;13.70;1.00
3684;DHT22;1858;48.716;9.648;2024-03-08T11:53:59;13.40;1.00
3684;DHT22;1858;48.716;9.648;2024-03-08T11:56:27;12.80;1.00
3684;DHT22;1858;48.716;9.648;2024-03-08T11:58:56;12.40;1.00
3684;DHT22;1858;48.716;9.648;2024-03-08T12:01:27;11.70;1.00
3684;DHT22;1858;48.716;9.648;2024-03-08T12:03:55;11.40;1.00
3684;DHT22;1858;48.716;9.648;2024-03-08T12:06:25;11.10;1.00
3684;DHT22;1858;48.716;9.648;2024-03-08T12:08:53;11.00;1.00
3684;DHT22;1858;48.716;9.648;2024-03-08T12:11:21;10.80;1.00
3684;DHT22;1858;48.716;9.648;2024-03-08T12:13:52;10.50;1.00
3684;DHT22;1858;48.716;9.648;2024-03-08T12:16:20;10.30;1.00
3684;DHT22;1858;48.716;9.648;2024-03-08T12:18:48;10.20;1.00
3684;DHT22;1858;48.716;9.648;2024-03-08T12:21:17;10.20;1.00
3684;DHT22;1858;48.716;9.648;2024-03-08T12:23:46;10.10;1.00
3684;DHT22;1858;48.716;9.648;2024-03-08T12:26:27;10.10;1.00
3684;DHT22;1858;48.716;9.648;2024-03-08T12:28:48;10.10;1.00
3684;DHT22;1858;48.716;9.648;2024-03-08T12:31:18;10.00;1.00
3684;DHT22;1858;48.716;9.648;2024-03-08T12:34:10;10.00;1.00
3684;DHT22;1858;48.716;9.648;2024-03-08T12:36:37;10.00;1.00
3684;DHT22;1858;48.716;9.648;2024-03-08T12:39:05;9.80;1.00
3684;DHT22;1858;48.716;9.648;2024-03-08T12:41:38;9.60;1.00
3684;DHT22;1858;48.716;9.648;2024-03-08T12:44:23;9.60;1.00
3684;DHT22;1858;48.716;9.648;2024-03-08T12:46:51;9.50;1.00
3684;DHT22;1858;48.716;9.648;2024-03-08T12:49:20;9.50;1.00
3684;DHT22;1858;48.716;9.648;2024-03-08T12:51:50;9.50;1.00
3684;DHT22;1858;48.716;9.648;2024-03-08T12:54:18;9.60;1.00
3684;DHT22;1858;48.716;9.648;2024-03-08T12:56:48;9.50;1.00
3684;DHT22;1858;48.716;9.648;2024-03-08T12:59:16;9.60;1.00
3684;DHT22;1858;48.716;9.648;2024-03-08T13:01:44;9.60;1.00
3684;DHT22;1858;48.716;9.648;2024-03-08T13:04:12;9.60;1.00
3684;DHT22;1858;48.716;9.648;2024-03-08T13:06:41;9.70;1.00
3684;DHT22;1858;48.716;9.648;2024-03-08T13:09:09;9.60;1.00
3684;DHT22;1858;48.716;9.648;2024-03-08T13:11:37;9.70;1.00
3684;DHT22;1858;48.716;9.648;2024-03-08T13:14:04;9.70;1.00
3684;DHT22;1858;48.716;9.648;2024-03-08T13:16:39;9.80;1.00
3684;DHT22;1858;48.716;9.648;2024-03-08T13:19:07;9.90;1.00
3684;DHT22;1858;48.716;9.648;2024-03-08T13:21:35;10.00;1.00
3684;DHT22;1858;48.716;9.648;2024-03-08T13:24:03;10.10;1.00
3684;DHT22;1858;48.716;9.648;2024-03-08T13:26:31;10.10;1.00
3684;DHT22;1858;48.716;9.648;2024-03-08T13:29:00;10.20;1.00
3684;DHT22;1858;48.716;9.648;2024-03-08T13:31:28;10.10;1.00
3684;DHT22;1858;48.716;9.648;2024-03-08T13:33:56;10.10;1.00
3684;DHT22;1858;48.716;9.648;2024-03-08T13:36:28;10.10;1.00
3684;DHT22;1858;48.716;9.648;2024-03-08T13:38:58;10.10;1.00
3684;DHT22;1858;48.716;9.648;2024-03-08T13:41:27;10.10;1.00
3684;DHT22;1858;48.716;9.648;2024-03-08T13:43:55;10.20;1.00
3684;DHT22;1858;48.716;9.648;2024-03-08T13:46:23;10.20;1.00
3684;DHT22;1858;48.716;9.648;2024-03-08T13:48:52;10.20;1.00
3684;DHT22;1858;48.716;9.648;2024-03-08T13:51:22;10.20;1.00
3684;DHT22;1858;48.716;9.648;2024-03-08T13:53:52;10.20;1.00
3684;DHT22;1858;48.716;9.648;2024-03-08T13:56:20;10.30;1.00
3684;DHT22;1858;48.716;9.648;2024-03-08T13:58:49;10.30;1.00
3684;DHT22;1858;48.716;9.648;2024-03-08T14:01:17;10.40;1.00
3684;DHT22;1858;48.716;9.648;2024-03-08T14:04:05;10.40;1.00
3684;DHT22;1858;48.716;9.648;2024-03-08T14:06:35;10.40;1.00
3684;DHT22;1858;48.716;9.648;2024-03-08T14:09:03;10.50;1.00
3684;DHT22;1858;48.716;9.648;2024-03-08T14:11:33;10.60;1.00
3684;DHT22;1858;48.716;9.648;2024-03-08T14:14:01;10.60;1.00
3684;DHT22;1858;48.716;9.648;2024-03-08T14:16:30;10.60;1.00
3684;DHT22;1858;48.716;9.648;2024-03-08T14:18:58;10.70;1.00
3684;DHT22;1858;48.716;9.648;2024-03-08T14:21:28;10.70;1.00
3684;DHT22;1858;48.716;9.648;2024-03-08T14:24:16;10.70;1.00
3684;DHT22;1858;48.716;9.648;2024-03-08T14:26:46;10.80;1.00
3684;DHT22;1858;48.716;9.648;2024-03-08T14:29:16;10.80;1.00
3684;DHT22;1858;48.716;9.648;2024-03-08T14:31:46;10.80;1.00
3684;DHT22;1858;48.716;9.648;2024-03-08T14:34:14;10.80;1.00
3684;DHT22;1858;48.716;9.648;2024-03-08T14:36:42;10.80;1.00
3684;DHT22;1858;48.716;9.648;2024-03-08T14:39:11;10.80;1.00
3684;DHT22;1858;48.716;9.648;2024-03-08T14:41:40;10.80;1.00
3684;DHT22;1858;48.716;9.648;2024-03-08T14:44:08;10.90;1.00
3684;DHT22;1858;48.716;9.648;2024-03-08T14:46:36;10.90;1.00
3684;DHT22;1858;48.716;9.648;2024-03-08T14:49:06;10.90;1.00
3684;DHT22;1858;48.716;9.648;2024-03-08T14:51:34;10.80;1.00
3684;DHT22;1858;48.716;9.648;2024-03-08T14:54:03;10.80;1.00
3684;DHT22;1858;48.716;9.648;2024-03-08T14:56:33;10.80;1.00
3684;DHT22;1858;48.716;9.648;2024-03-08T14:59:02;10.90;1.00
3684;DHT22;1858;48.716;9.648;2024-03-08T15:01:32;10.80;1.00
3684;DHT22;1858;48.716;9.648;2024-03-08T15:04:02;10.80;1.00
3684;DHT22;1858;48.716;9.648;2024-03-08T15:06:32;10.80;1.00
3684;DHT22;1858;48.716;9.648;2024-03-08T15:09:01;10.80;1.00
3684;DHT22;1858;48.716;9.648;2024-03-08T15:11:31;10.80;1.00
3684;DHT22;1858;48.716;9.648;2024-03-08T15:13:59;10.70;1.00
3684;DHT22;1858;48.716;9.648;2024-03-08T15:16:28;10.80;1.00
3684;DHT22;1858;48.716;9.648;2024-03-08T15:18:57;10.80;1.00
3684;DHT22;1858;48.716;9.648;2024-03-08T15:21:46;10.70;1.00
3684;DHT22;1858;48.716;9.648;2024-03-08T15:24:16;10.80;1.00
3684;DHT22;1858;48.716;9.648;2024-03-08T15:26:47;10.70;1.00
3684;DHT22;1858;48.716;9.648;2024-03-08T15:29:17;10.70;1.00
3684;DHT22;1858;48.716;9.648;2024-03-08T15:31:47;10.70;1.00
3684;DHT22;1858;48.716;9.648;2024-03-08T15:34:17;10.70;1.00
3684;DHT22;1858;48.716;9.648;2024-03-08T15:36:47;10.70;1.00
3684;DHT22;1858;48.716;9.648;2024-03-08T15:39:17;10.60;1.00
3684;DHT22;1858;48.716;9.648;2024-03-08T15:41:48;10.60;1.00
3684;DHT22;1858;48.716;9.648;2024-03-08T15:44:17;10.60;1.00
3684;DHT22;1858;48.716;9.648;2024-03-08T15:46:45;10.60;1.00
3684;DHT22;1858;48.716;9.648;2024-03-08T15:49:14;10.60;1.00
3684;DHT22;1858;48.716;9.648;2024-03-08T15:51:42;10.50;1.00
3684;DHT22;1858;48.716;9.648;2024-03-08T15:54:11;10.50;1.00
3684;DHT22;1858;48.716;9.648;2024-03-08T15:56:40;10.60;1.00
3684;DHT22;1858;48.716;9.648;2024-03-08T15:59:08;10.50;1.00
3684;DHT22;1858;48.716;9.648;2024-03-08T16:01:37;10.40;1.00
3684;DHT22;1858;48.716;9.648;2024-03-08T16:04:05;10.40;1.00
3684;DHT22;1858;48.716;9.648;2024-03-08T16:06:34;10.40;1.00
3684;DHT22;1858;48.716;9.648;2024-03-08T16:09:04;10.30;1.00
3684;DHT22;1858;48.716;9.648;2024-03-08T16:11:34;10.30;1.00
3684;DHT22;1858;48.716;9.648;2024-03-08T16:14:04;10.30;1.00
3684;DHT22;1858;48.716;9.648;2024-03-08T16:16:33;10.20;1.00
3684;DHT22;1858;48.716;9.648;2024-03-08T16:19:01;10.20;1.00
3684;DHT22;1858;48.716;9.648;2024-03-08T16:21:31;10.10;1.00
3684;DHT22;1858;48.716;9.648;2024-03-08T16:24:00;10.10;1.00
3684;DHT22;1858;48.716;9.648;2024-03-08T16:26:29;10.10;1.00
3684;DHT22;1858;48.716;9.648;2024-03-08T16:28:59;10.10;1.00
3684;DHT22;1858;48.716;9.648;2024-03-08T16:31:46;10.10;1.00
3684;DHT22;1858;48.716;9.648;2024-03-08T16:34:16;10.00;1.00
3684;DHT22;1858;48.716;9.648;2024-03-08T16:36:44;10.00;1.00
3684;DHT22;1858;48.716;9.648;2024-03-08T16:39:13;9.90;1.00
3684;DHT22;1858;48.716;9.648;2024-03-08T16:41:41;9.90;1.00
3684;DHT22;1858;48.716;9.648;2024-03-08T16:44:10;9.90;1.00
3684;DHT22;1858;48.716;9.648;2024-03-08T16:46:38;9.80;1.00
3684;DHT22;1858;48.716;9.648;2024-03-08T16:49:06;9.80;1.00
3684;DHT22;1858;48.716;9.648;2024-03-08T16:51:35;9.70;1.00
3684;DHT22;1858;48.716;9.648;2024-03-08T16:54:03;9.70;1.00
3684;DHT22;1858;48.716;9.648;2024-03-08T16:56:32;9.50;1.00
3684;DHT22;1858;48.716;9.648;2024-03-08T16:59:00;9.40;1.00